createdAt,value
2022-09-17T00:01:27.209Z,96056.50
2022-09-17T00:03:56.619Z,96062.38
2022-09-17T00:06:26.147Z,96056.69
2022-09-17T00:08:55.245Z,96061.41
2022-09-17T00:11:25.986Z,96065.06
2022-09-17T00:13:54.754Z,96060.41
2022-09-17T00:16:26.153Z,96058.84
2022-09-17T00:18:53.988Z,96059.03
2022-09-17T00:21:22.280Z,96051.41
2022-09-17T00:23:50.182Z,96051.63
2022-09-17T00:26:17.985Z,96051.78
2022-09-17T00:28:50.620Z,96060.72
2022-09-17T00:31:18.653Z,96057.19
2022-09-17T00:33:46.547Z,96060.66
2022-09-17T00:36:14.458Z,96057.94
2022-09-17T00:38:42.349Z,96057.19
2022-09-17T00:41:10.439Z,96054.75
2022-09-17T00:43:42.885Z,96065.47
2022-09-17T00:46:26.950Z,96059.31
2022-09-17T00:48:55.818Z,96061.19
2022-09-17T00:51:29.997Z,96054.06
2022-09-17T00:53:57.909Z,96047.53
2022-09-17T00:56:28.891Z,96053.44
2022-09-17T00:58:57.188Z,96052.00
2022-09-17T01:01:26.480Z,96050.47
2022-09-17T01:03:54.319Z,96049.75
2022-09-17T01:06:30.425Z,96048.47
2022-09-17T01:09:10.981Z,96042.75
2022-09-17T01:12:00.298Z,96045.53
2022-09-17T01:14:43.641Z,96042.69
2022-09-17T01:17:21.208Z,96041.25
2022-09-17T01:20:22.535Z,96048.47
2022-09-17T01:23:06.965Z,96043.59
2022-09-17T01:25:45.480Z,96045.03
2022-09-17T01:28:34.015Z,96044.78
2022-09-17T01:31:35.014Z,96043.66
2022-09-17T01:34:12.298Z,96038.56
2022-09-17T01:36:51.045Z,96039.06
2022-09-17T01:39:32.357Z,96046.09
2022-09-17T01:42:11.436Z,96048.88
2022-09-17T01:44:46.466Z,96041.75
2022-09-17T01:47:21.316Z,96045.78
2022-09-17T01:49:51.726Z,96047.22
2022-09-17T01:52:20.698Z,96052.84
2022-09-17T01:54:53.779Z,96042.59
2022-09-17T01:57:27.941Z,96044.59
2022-09-17T02:00:01.121Z,96049.69
2022-09-17T02:02:35.482Z,96046.97
2022-09-17T02:05:08.595Z,96044.91
2022-09-17T02:07:42.176Z,96055.75
2022-09-17T02:10:14.653Z,96043.44
2022-09-17T02:12:47.626Z,96045.94
2022-09-17T02:15:22.127Z,96055.75
2022-09-17T02:17:55.772Z,96045.06
2022-09-17T02:20:29.924Z,96049.22
2022-09-17T02:23:02.998Z,96052.84
2022-09-17T02:25:37.061Z,96054.66
2022-09-17T02:28:12.807Z,96054.84
2022-09-17T02:30:41.111Z,96055.84
2022-09-17T02:33:14.891Z,96054.66
2022-09-17T02:35:43.499Z,96048.28
2022-09-17T02:38:11.468Z,96051.81
2022-09-17T02:40:47.319Z,96048.63
2022-09-17T02:43:24.583Z,96044.09
2022-09-17T02:46:13.397Z,96044.09
2022-09-17T02:49:11.690Z,96036.22
2022-09-17T02:51:51.388Z,96046.03
2022-09-17T02:54:27.740Z,96042.00
2022-09-17T02:57:06.078Z,96037.28
2022-09-17T02:59:41.888Z,96038.91
2022-09-17T03:02:16.508Z,96040.19
2022-09-17T03:04:48.627Z,96042.28
2022-09-17T03:07:20.005Z,96044.88
2022-09-17T03:09:47.867Z,96027.25
2022-09-17T03:12:16.442Z,96039.56
2022-09-17T03:14:44.205Z,96031.81
2022-09-17T03:17:13.010Z,96038.22
2022-09-17T03:19:40.787Z,96035.38
2022-09-17T03:22:09.946Z,96031.38
2022-09-17T03:24:37.726Z,96040.44
2022-09-17T03:27:05.939Z,96035.13
2022-09-17T03:29:34.497Z,96033.19
2022-09-17T03:32:03.741Z,96030.31
2022-09-17T03:34:31.610Z,96026.25
2022-09-17T03:36:59.392Z,96031.81
2022-09-17T03:39:29.452Z,96032.25
2022-09-17T03:41:57.377Z,96037.13
2022-09-17T03:44:25.227Z,96050.97
2022-09-17T03:46:53.859Z,96056.16
2022-09-17T03:49:21.659Z,96049.09
2022-09-17T03:51:49.414Z,96049.75
2022-09-17T03:54:17.603Z,96058.69
2022-09-17T03:56:46.827Z,96045.06
2022-09-17T03:59:15.215Z,96055.13
2022-09-17T04:01:43.159Z,96052.91
2022-09-17T04:04:11.032Z,96049.56
2022-09-17T04:06:38.912Z,96055.09
2022-09-17T04:09:06.806Z,96056.63
2022-09-17T04:11:34.626Z,96055.50
2022-09-17T04:14:04.366Z,96059.03
2022-09-17T04:16:32.248Z,96057.50
2022-09-17T04:19:00.273Z,96061.50
2022-09-17T04:21:28.174Z,96064.66
2022-09-17T04:23:55.971Z,96065.97
2022-09-17T04:26:23.751Z,96071.44
2022-09-17T04:28:51.548Z,96065.47
2022-09-17T04:31:25.053Z,96064.31
2022-09-17T04:33:52.931Z,96059.84
2022-09-17T04:36:20.930Z,96058.69
2022-09-17T04:38:49.268Z,96064.03
2022-09-17T04:41:17.057Z,96058.59
2022-09-17T04:43:44.874Z,96068.75
2022-09-17T04:46:14.198Z,96068.22
2022-09-17T04:48:43.623Z,96066.84
2022-09-17T04:51:11.399Z,96057.53
2022-09-17T04:53:39.279Z,96063.88
2022-09-17T04:56:07.230Z,96069.47
2022-09-17T04:58:35.331Z,96072.47
2022-09-17T05:01:03.226Z,96070.56
2022-09-17T05:03:31.081Z,96068.03
2022-09-17T05:06:00.254Z,96070.25
2022-09-17T05:08:28.051Z,96073.31
2022-09-17T05:10:56.623Z,96077.41
2022-09-17T05:13:24.407Z,96081.28
2022-09-17T05:15:52.384Z,96066.06
2022-09-17T05:18:20.204Z,96079.44
2022-09-17T05:20:48.144Z,96073.47
2022-09-17T05:23:17.778Z,96072.81
2022-09-17T05:25:45.575Z,96068.25
2022-09-17T05:28:13.381Z,96066.19
2022-09-17T05:30:41.176Z,96067.69
2022-09-17T05:33:09.167Z,96071.25
2022-09-17T05:35:37.159Z,96068.69
2022-09-17T05:38:07.618Z,96075.47
2022-09-17T05:40:37.640Z,96069.88
2022-09-17T05:43:07.735Z,96077.66
2022-09-17T05:45:37.630Z,96079.69
2022-09-17T05:48:11.170Z,96080.00
2022-09-17T05:50:39.034Z,96072.63
2022-09-17T05:53:08.244Z,96080.16
2022-09-17T05:55:37.541Z,96080.88
2022-09-17T05:58:11.416Z,96073.44
2022-09-17T06:00:39.476Z,96070.69
2022-09-17T06:03:07.333Z,96076.91
2022-09-17T06:05:35.164Z,96064.44
2022-09-17T06:08:03.676Z,96081.78
2022-09-17T06:10:31.555Z,96074.94
2022-09-17T06:13:01.015Z,96085.50
2022-09-17T06:15:29.318Z,96072.03
2022-09-17T06:17:57.500Z,96077.88
2022-09-17T06:20:25.405Z,96073.72
2022-09-17T06:22:57.744Z,96075.63
2022-09-17T06:25:26.424Z,96072.31
2022-09-17T06:27:54.186Z,96072.91
2022-09-17T06:30:23.478Z,96078.09
2022-09-17T06:32:51.772Z,96080.97
2022-09-17T06:35:20.546Z,96075.53
2022-09-17T06:37:48.732Z,96074.47
2022-09-17T06:40:17.377Z,96075.28
2022-09-17T06:42:45.287Z,96069.56
2022-09-17T06:45:16.557Z,96074.06
2022-09-17T06:47:46.259Z,96069.72
2022-09-17T06:50:14.418Z,96076.50
2022-09-17T06:52:49.137Z,96077.81
2022-09-17T06:55:17.407Z,96074.22
2022-09-17T06:57:45.429Z,96086.53
2022-09-17T07:00:15.070Z,96085.25
2022-09-17T07:02:43.029Z,96088.22
2022-09-17T07:05:12.445Z,96083.47
2022-09-17T07:07:40.893Z,96090.94
2022-09-17T07:10:09.600Z,96088.59
2022-09-17T07:12:41.439Z,96090.03
2022-09-17T07:15:11.325Z,96094.09
2022-09-17T07:17:39.712Z,96094.63
2022-09-17T07:20:08.575Z,96095.28
2022-09-17T07:22:38.354Z,96093.19
2022-09-17T07:25:07.650Z,96097.28
2022-09-17T07:27:35.528Z,96097.38
2022-09-17T07:30:03.813Z,96096.03
2022-09-17T07:32:32.411Z,96097.63
2022-09-17T07:35:00.257Z,96101.00
2022-09-17T07:37:30.049Z,96093.47
2022-09-17T07:39:59.231Z,96100.06
2022-09-17T07:42:27.614Z,96117.13
2022-09-17T07:44:59.822Z,96123.41
2022-09-17T07:47:29.780Z,96133.94
2022-09-17T07:49:57.782Z,96137.13
2022-09-17T07:52:25.697Z,96143.28
2022-09-17T07:54:53.601Z,96132.56
2022-09-17T07:57:22.965Z,96144.66
2022-09-17T07:59:50.749Z,96143.94
2022-09-17T08:02:23.207Z,96147.25
2022-09-17T08:04:52.101Z,96142.75
2022-09-17T08:07:19.863Z,96153.16
2022-09-17T08:09:47.678Z,96157.06
2022-09-17T08:12:15.436Z,96148.13
2022-09-17T08:14:44.643Z,96147.91
2022-09-17T08:17:13.059Z,96144.69
2022-09-17T08:19:40.888Z,96148.16
2022-09-17T08:22:08.686Z,96148.16
2022-09-17T08:24:36.526Z,96144.22
2022-09-17T08:27:04.699Z,96147.59
2022-09-17T08:29:35.285Z,96143.09
2022-09-17T08:32:06.982Z,96146.13
2022-09-17T08:34:36.733Z,96150.38
2022-09-17T08:37:04.567Z,96142.00
2022-09-17T08:39:32.578Z,96148.63
2022-09-17T08:42:09.411Z,96139.59
2022-09-17T08:44:42.290Z,96143.94
2022-09-17T08:47:18.563Z,96134.91
2022-09-17T08:49:52.065Z,96142.22
2022-09-17T08:52:50.899Z,96140.34
2022-09-17T08:55:34.903Z,96142.91
2022-09-17T08:58:20.404Z,96135.69
2022-09-17T09:00:55.482Z,96140.34
2022-09-17T09:03:37.232Z,96142.09
2022-09-17T09:06:10.543Z,96144.59
2022-09-17T09:08:44.023Z,96153.06
2022-09-17T09:11:17.156Z,96153.53
2022-09-17T09:13:48.405Z,96155.34
2022-09-17T09:16:18.905Z,96158.16
2022-09-17T09:18:52.392Z,96161.94
2022-09-17T09:21:28.162Z,96161.09
2022-09-17T09:23:58.710Z,96166.34
2022-09-17T09:26:41.997Z,96160.78
2022-09-17T09:29:20.227Z,96168.44
2022-09-17T09:32:17.840Z,96164.28
2022-09-17T09:34:49.332Z,96164.19
2022-09-17T09:37:21.470Z,96165.00
2022-09-17T09:39:52.209Z,96163.88
2022-09-17T09:42:29.739Z,96160.97
2022-09-17T09:45:04.905Z,96167.53
2022-09-17T09:47:47.629Z,96174.75
2022-09-17T09:51:01.977Z,96169.53
2022-09-17T09:53:32.914Z,96181.53
2022-09-17T09:56:16.724Z,96187.84
2022-09-17T09:58:44.557Z,96191.34
2022-09-17T10:01:15.846Z,96198.94
2022-09-17T10:03:46.162Z,96192.13
2022-09-17T10:06:17.198Z,96199.22
2022-09-17T10:09:13.751Z,96201.66
2022-09-17T10:11:42.457Z,96198.31
2022-09-17T10:14:24.186Z,96196.81
2022-09-17T10:17:11.772Z,96198.06
2022-09-17T10:19:39.862Z,96189.34
2022-09-17T10:22:27.253Z,96177.19
2022-09-17T10:24:57.839Z,96172.47
2022-09-17T10:27:27.551Z,96170.47
2022-09-17T10:30:04.503Z,96164.06
2022-09-17T10:32:32.535Z,96155.47
2022-09-17T10:35:04.519Z,96162.63
2022-09-17T10:37:37.312Z,96167.88
2022-09-17T10:40:27.509Z,96165.66
2022-09-17T10:43:20.346Z,96159.75
2022-09-17T10:45:58.828Z,96154.25
2022-09-17T10:48:29.814Z,96163.22
2022-09-17T10:50:58.509Z,96162.81
2022-09-17T10:53:28.446Z,96161.94
2022-09-17T10:56:06.459Z,96162.31
2022-09-17T10:58:46.631Z,96157.72
2022-09-17T11:01:29.803Z,96172.69
2022-09-17T11:04:26.821Z,96183.91
2022-09-17T11:07:22.413Z,96190.66
2022-09-17T11:10:00.856Z,96178.88
2022-09-17T11:12:38.130Z,96164.81
2022-09-17T11:15:22.050Z,96177.34
2022-09-17T11:18:19.600Z,96165.09
2022-09-17T11:20:59.901Z,96174.03
2022-09-17T11:23:52.689Z,96180.72
2022-09-17T11:26:33.617Z,96180.28
2022-09-17T11:29:17.582Z,96180.00
2022-09-17T11:31:55.644Z,96171.16
2022-09-17T11:34:29.547Z,96161.41
2022-09-17T11:37:06.124Z,96157.59
2022-09-17T11:39:39.921Z,96156.69
2022-09-17T11:42:16.019Z,96141.16
2022-09-17T11:44:51.642Z,96158.06
2022-09-17T11:47:24.991Z,96158.53
2022-09-17T11:49:58.952Z,96160.44
2022-09-17T11:52:31.071Z,96161.09
2022-09-17T11:55:03.900Z,96158.97
2022-09-17T11:57:37.205Z,96165.34
2022-09-17T12:00:08.611Z,96145.81
2022-09-17T12:02:53.065Z,96146.94
2022-09-17T12:05:25.122Z,96139.13
2022-09-17T12:07:57.782Z,96133.00
2022-09-17T12:10:38.141Z,96120.28
2022-09-17T12:13:18.206Z,96123.16
2022-09-17T12:15:53.462Z,96132.50
2022-09-17T12:18:38.025Z,96141.34
2022-09-17T12:21:10.474Z,96141.97
2022-09-17T12:23:43.917Z,96131.03
2022-09-17T12:26:22.539Z,96132.97
2022-09-17T12:29:01.822Z,96133.28
2022-09-17T12:31:36.366Z,96132.09
2022-09-17T12:34:21.432Z,96143.25
2022-09-17T12:36:57.372Z,96141.72
2022-09-17T12:39:53.948Z,96136.13
2022-09-17T12:42:35.518Z,96139.09
2022-09-17T12:45:21.247Z,96143.22
2022-09-17T12:48:24.513Z,96148.31
2022-09-17T12:51:03.064Z,96154.00
2022-09-17T12:53:36.913Z,96146.59
2022-09-17T12:56:17.207Z,96153.84
2022-09-17T12:59:05.349Z,96148.56
2022-09-17T13:01:41.197Z,96149.28
2022-09-17T13:04:43.629Z,96141.13
2022-09-17T13:07:51.323Z,96143.91
2022-09-17T13:10:40.866Z,96149.38
2022-09-17T13:13:26.388Z,96147.75
2022-09-17T13:16:00.619Z,96159.19
2022-09-17T13:18:36.061Z,96152.19
2022-09-17T13:21:14.204Z,96143.78
2022-09-17T13:23:44.842Z,96141.16
2022-09-17T13:26:17.010Z,96141.41
2022-09-17T13:28:47.737Z,96147.47
2022-09-17T13:31:21.949Z,96134.66
2022-09-17T13:33:54.458Z,96133.47
2022-09-17T13:36:41.411Z,96144.72
2022-09-17T13:39:30.486Z,96145.66
2022-09-17T13:42:04.833Z,96136.84
2022-09-17T13:44:36.098Z,96145.34
2022-09-17T13:47:18.177Z,96143.91
2022-09-17T13:50:03.450Z,96144.03
2022-09-17T13:52:44.088Z,96134.63
2022-09-17T13:55:32.874Z,96131.66
2022-09-17T13:58:01.584Z,96146.03
2022-09-17T14:00:49.316Z,96139.88
2022-09-17T14:03:51.169Z,96146.13
2022-09-17T14:06:53.790Z,96137.94
2022-09-17T14:09:51.342Z,96134.84
2022-09-17T14:12:52.381Z,96135.44
2022-09-17T14:15:36.397Z,96128.50
2022-09-17T14:18:25.931Z,96142.03
2022-09-17T14:20:55.418Z,96139.31
2022-09-17T14:23:25.487Z,96132.03
2022-09-17T14:25:56.860Z,96143.88
2022-09-17T14:28:33.264Z,96141.53
2022-09-17T14:33:56.733Z,96136.97
2022-09-17T14:36:25.257Z,96138.09
2022-09-17T14:38:57.284Z,96124.84
2022-09-17T14:41:27.123Z,96132.97
2022-09-17T14:43:58.694Z,96150.50
2022-09-17T14:46:32.810Z,96159.53
2022-09-17T14:49:15.897Z,96151.13
2022-09-17T14:51:43.990Z,96145.25
2022-09-17T14:54:19.314Z,96135.94
2022-09-17T14:56:50.852Z,96143.09
2022-09-17T14:59:23.959Z,96143.41
2022-09-17T15:01:51.905Z,96144.31
2022-09-17T15:04:22.736Z,96137.72
2022-09-17T15:06:51.633Z,96129.94
2022-09-17T15:09:26.228Z,96131.41
2022-09-17T15:11:56.552Z,96126.25
2022-09-17T15:14:31.821Z,96128.44
2022-09-17T15:17:01.988Z,96145.28
2022-09-17T15:19:35.846Z,96140.50
2022-09-17T15:22:09.147Z,96142.59
2022-09-17T15:24:43.872Z,96144.91
2022-09-17T15:27:18.525Z,96139.31
2022-09-17T15:29:51.319Z,96126.81
2022-09-17T15:32:19.614Z,96130.41
2022-09-17T15:35:18.306Z,96122.81
2022-09-17T15:38:11.528Z,96121.84
2022-09-17T15:40:39.312Z,96123.81
2022-09-17T15:43:18.078Z,96128.88
2022-09-17T15:45:46.295Z,96126.00
2022-09-17T15:48:36.026Z,96127.97
2022-09-17T15:51:05.470Z,96127.00
2022-09-17T15:53:35.173Z,96135.09
2022-09-17T15:56:07.432Z,96134.09
2022-09-17T15:58:50.414Z,96147.69
2022-09-17T16:01:53.997Z,96142.03
2022-09-17T16:04:30.261Z,96142.06
2022-09-17T16:07:17.792Z,96148.16
2022-09-17T16:09:49.078Z,96153.75
2022-09-17T16:12:22.310Z,96153.13
2022-09-17T16:14:52.978Z,96156.38
2022-09-17T16:17:42.999Z,96148.34
2022-09-17T16:20:16.860Z,96153.06
2022-09-17T16:22:45.502Z,96148.41
2022-09-17T16:25:13.358Z,96144.88
2022-09-17T16:27:50.287Z,96146.34
2022-09-17T16:30:20.328Z,96146.16
2022-09-17T16:32:48.526Z,96130.97
2022-09-17T16:35:18.092Z,96133.78
2022-09-17T16:37:48.829Z,96143.09
2022-09-17T16:40:17.154Z,96145.88
2022-09-17T16:42:46.928Z,96150.81
2022-09-17T16:45:15.499Z,96149.09
2022-09-17T16:47:44.891Z,96157.31
2022-09-17T16:50:15.561Z,96161.69
2022-09-17T16:52:43.866Z,96154.97
2022-09-17T16:55:13.329Z,96161.69
2022-09-17T16:57:41.221Z,96160.22
2022-09-17T17:00:14.239Z,96164.09
2022-09-17T17:02:42.101Z,96164.19
2022-09-17T17:05:10.637Z,96159.66
2022-09-17T17:07:38.800Z,96158.06
2022-09-17T17:10:09.091Z,96165.09
2022-09-17T17:12:37.736Z,96163.53
2022-09-17T17:15:07.020Z,96165.84
2022-09-17T17:17:36.847Z,96163.81
2022-09-17T17:20:07.991Z,96167.53
2022-09-17T17:22:37.005Z,96167.53
2022-09-17T17:25:05.609Z,96175.94
2022-09-17T17:27:33.446Z,96166.72
2022-09-17T17:30:02.239Z,96168.91
2022-09-17T17:32:30.080Z,96170.13
2022-09-17T17:34:59.298Z,96161.38
2022-09-17T17:37:27.010Z,96163.41
2022-09-17T17:39:54.835Z,96162.13
2022-09-17T17:42:22.671Z,96160.13
2022-09-17T17:44:50.423Z,96153.88
2022-09-17T17:47:18.232Z,96158.66
2022-09-17T17:49:46.082Z,96161.78
2022-09-17T17:52:15.207Z,96169.72
2022-09-17T17:54:42.987Z,96173.38
2022-09-17T17:57:11.427Z,96173.59
2022-09-17T17:59:39.316Z,96179.06
2022-09-17T18:02:07.633Z,96182.19
2022-09-17T18:04:35.581Z,96180.94
2022-09-17T18:07:03.359Z,96187.53
2022-09-17T18:09:32.480Z,96200.78
2022-09-17T18:12:00.449Z,96212.13
2022-09-17T18:14:28.248Z,96218.72
2022-09-17T18:16:56.123Z,96229.31
2022-09-17T18:19:23.961Z,96229.66
2022-09-17T18:21:51.878Z,96234.53
2022-09-17T18:24:19.727Z,96213.72
2022-09-17T18:26:48.856Z,96204.75
2022-09-17T18:29:16.671Z,96207.34
2022-09-17T18:31:46.391Z,96204.59
2022-09-17T18:34:16.857Z,96205.09
2022-09-17T18:36:50.791Z,96200.56
2022-09-17T18:42:09.831Z,96195.53
2022-09-17T18:44:37.692Z,96199.25
2022-09-17T18:47:05.606Z,96200.16
2022-09-17T18:49:33.619Z,96194.97
2022-09-17T18:52:01.460Z,96205.91
2022-09-17T18:54:29.275Z,96211.94
2022-09-17T18:56:57.054Z,96206.94
2022-09-17T18:59:26.245Z,96214.81
2022-09-17T19:01:54.090Z,96218.78
2022-09-17T19:04:22.674Z,96214.19
2022-09-17T19:06:50.467Z,96218.28
2022-09-17T19:09:18.449Z,96222.16
2022-09-17T19:11:46.266Z,96223.56
2022-09-17T19:14:14.120Z,96223.94
2022-09-17T19:16:43.268Z,96216.97
2022-09-17T19:19:11.524Z,96224.94
2022-09-17T19:21:39.331Z,96221.88
2022-09-17T19:24:07.507Z,96228.97
2022-09-17T19:26:35.310Z,96220.50
2022-09-17T19:29:03.131Z,96228.44
2022-09-17T19:31:31.164Z,96225.78
2022-09-17T19:34:00.461Z,96227.31
2022-09-17T19:36:29.014Z,96220.50
2022-09-17T19:38:58.577Z,96226.09
2022-09-17T19:41:26.777Z,96223.53
2022-09-17T19:43:56.895Z,96220.53
2022-09-17T19:46:26.829Z,96216.69
2022-09-17T19:48:56.439Z,96207.66
2022-09-17T19:51:28.333Z,96206.06
2022-09-17T19:53:56.974Z,96213.09
2022-09-17T19:56:27.097Z,96217.91
2022-09-17T19:58:55.233Z,96220.13
2022-09-17T20:01:23.278Z,96220.41
2022-09-17T20:03:53.206Z,96223.94
2022-09-17T20:06:23.320Z,96221.09
2022-09-17T20:08:54.665Z,96219.06
2022-09-17T20:11:24.661Z,96217.91
2022-09-17T20:13:57.643Z,96210.66
2022-09-17T20:16:25.507Z,96210.63
2022-09-17T20:18:53.569Z,96203.78
2022-09-17T20:21:23.643Z,96202.97
2022-09-17T20:23:53.085Z,96198.94
2022-09-17T20:26:21.848Z,96204.75
2022-09-17T20:28:51.078Z,96200.09
2022-09-17T20:31:21.871Z,96203.91
2022-09-17T20:33:52.860Z,96202.50
2022-09-17T20:36:22.095Z,96195.56
2022-09-17T20:41:40.654Z,96202.63
2022-09-17T20:44:08.778Z,96197.84
2022-09-17T20:46:36.609Z,96195.88
2022-09-17T20:49:05.344Z,96192.28
2022-09-17T20:51:34.058Z,96190.53
2022-09-17T20:54:02.888Z,96196.72
2022-09-17T20:56:33.324Z,96203.16
2022-09-17T20:59:08.747Z,96188.91
2022-09-17T21:01:38.087Z,96190.50
2022-09-17T21:04:07.803Z,96182.78
2022-09-17T21:06:37.104Z,96179.53
2022-09-17T21:09:05.999Z,96195.50
2022-09-17T21:11:34.676Z,96188.06
2022-09-17T21:14:03.971Z,96194.34
2022-09-17T21:16:32.175Z,96196.56
2022-09-17T21:19:01.794Z,96193.25
2022-09-17T21:21:30.354Z,96187.56
2022-09-17T21:24:01.084Z,96187.53
2022-09-17T21:26:29.581Z,96190.00
2022-09-17T21:28:58.401Z,96175.63
2022-09-17T21:31:32.346Z,96180.00
2022-09-17T21:34:03.322Z,96171.72
2022-09-17T21:36:33.109Z,96179.56
2022-09-17T21:39:02.265Z,96173.69
2022-09-17T21:41:30.620Z,96186.31
2022-09-17T21:43:58.687Z,96186.38
2022-09-17T21:46:30.302Z,96174.91
2022-09-17T21:49:00.078Z,96185.91
2022-09-17T21:51:30.560Z,96185.63
2022-09-17T21:54:00.901Z,96178.75
2022-09-17T21:56:29.560Z,96177.97
2022-09-17T21:58:58.863Z,96174.69
2022-09-17T22:01:32.120Z,96182.78
2022-09-17T22:04:02.058Z,96182.72
2022-09-17T22:06:32.099Z,96182.00
2022-09-17T22:09:02.087Z,96177.19
2022-09-17T22:11:33.739Z,96175.84
2022-09-17T22:14:05.202Z,96174.22
2022-09-17T22:16:36.066Z,96174.28
2022-09-17T22:19:05.688Z,96175.78
2022-09-17T22:21:36.091Z,96179.19
2022-09-17T22:24:05.847Z,96175.44
2022-09-17T22:26:36.243Z,96170.00
2022-09-17T22:29:06.760Z,96168.88
2022-09-17T22:31:36.762Z,96171.50
2022-09-17T22:34:08.677Z,96166.84
2022-09-17T22:36:36.946Z,96162.88
2022-09-17T22:39:06.662Z,96165.19
2022-09-17T22:41:36.697Z,96157.34
2022-09-17T22:44:06.587Z,96165.63
2022-09-17T22:46:39.374Z,96156.13
2022-09-17T22:49:07.946Z,96165.44
2022-09-17T22:51:35.848Z,96153.53
2022-09-17T22:54:04.052Z,96152.13
2022-09-17T22:56:31.884Z,96152.09
2022-09-17T22:59:00.162Z,96156.91
2022-09-17T23:01:29.902Z,96153.31
2022-09-17T23:04:00.283Z,96155.53
2022-09-17T23:06:30.411Z,96151.06
2022-09-17T23:08:59.296Z,96141.03
2022-09-17T23:11:28.876Z,96150.31
2022-09-17T23:13:58.554Z,96145.94
2022-09-17T23:16:26.740Z,96149.31
2022-09-17T23:18:55.086Z,96139.16
2022-09-17T23:21:24.256Z,96140.19
2022-09-17T23:23:52.441Z,96129.41
2022-09-17T23:26:22.906Z,96129.50
2022-09-17T23:28:51.708Z,96121.84
2022-09-17T23:31:23.742Z,96127.25
2022-09-17T23:33:52.246Z,96127.50
2022-09-17T23:36:22.403Z,96120.25
2022-09-17T23:38:52.764Z,96126.50
2022-09-17T23:41:22.953Z,96124.66
2022-09-17T23:43:52.568Z,96127.31
2022-09-17T23:46:22.214Z,96121.03
2022-09-17T23:48:51.295Z,96126.19
2022-09-17T23:51:19.187Z,96125.13
2022-09-17T23:53:48.049Z,96122.56
2022-09-17T23:56:19.112Z,96111.78
2022-09-17T23:58:46.925Z,96115.38
